This is the latest recevied weather packets stored in our database for station/object W7BL. If no packets are shown the sender has not sent any weather packets the latest 1 day(s).
| Time | Temp. | Humidity | Pressure | Rain* | Wind** | Luminosity | Snow |
|---|---|---|---|---|---|---|---|
| 1778077696 | 11.11° C | 73% | - | 0 mm | - | - | - |
| 1778075881 | 10.56° C | 79% | - | 0 mm | - | - | - |
| 1778075577 | 10° C | 78% | - | 0 mm | - | - | - |
| 1778075274 | 9.44° C | 79% | - | 0 mm | - | - | - |
| 1778074364 | 8.89° C | 80% | - | 0 mm | - | - | - |
| 1778074061 | 8.33° C | 82% | - | 0 mm | - | - | - |
| 1778072849 | 7.78° C | 84% | - | 0 mm | - | - | - |
| 1778072244 | 7.78° C | 84% | - | 0 mm | - | - | - |
| 1778071034 | 7.78° C | 82% | - | 0 mm | - | - | - |
| 1778070127 | 7.78° C | 83% | - | 0 mm | - | - | - |
| 1778068614 | 8.89° C | 77% | - | 0 mm | - | - | - |
| 1778068312 | 9.44° C | 76% | - | 0 mm | - | - | - |
| 1778067102 | 10.56° C | 72% | - | 0 mm | - | - | - |
| 1778066496 | 10.56° C | 72% | - | 0 mm | - | - | - |
| 1778065891 | 10° C | 76% | - | 0 mm | - | - | - |
| 1778065588 | 8.33° C | 84% | - | 0 mm | - | - | - |
| 1778064982 | 8.33° C | 84% | - | 0 mm | - | - | - |
| 1778064377 | 8.33° C | 84% | - | 0 mm | - | - | - |
| 1778064074 | 8.33° C | 84% | - | 0 mm | - | - | - |
| 1778062257 | 8.33° C | 83% | - | 0 mm | - | - | - |
| 1778061955 | 8.33° C | 83% | - | 0 mm | - | - | - |
| 1778061653 | 8.33° C | 83% | - | 0 mm | - | - | - |
| 1778059838 | 9.44° C | 80% | - | 0 mm | - | - | - |
| 1778059536 | 9.44° C | 79% | - | 0 mm | - | - | - |
| 1778059233 | 9.44° C | 79% | - | 0 mm | - | - | - |
* Rain latest hour (hover to see other rain measurements)
** Current wind speed in m/s (hover to see current wind gust speed)